Date,TemperatureHighF,TemperatureAvgF,TemperatureLowF,DewpointHighF,DewpointAvgF,DewpointLowF,HumidityHigh,HumidityAvg,HumidityLow,PressureMaxIn,PressureMinIn,WindSpeedMaxMPH,WindSpeedAvgMPH,GustSpeedMaxMPH,PrecipitationSumIn
2013-1-1,37,34,29,34,31,26,93,87,77,29.50,29.16,5,2,14,0.00
2013-1-2,37,33,29,32,30,27,96,90,79,29.48,29.43,2,1,7,0.00
2013-1-3,38,36,31,33,31,28,90,82,77,29.56,29.44,4,2,10,0.00
2013-1-4,31,28,23,30,27,22,98,96,90,29.81,29.56,1,0,3,0.00
2013-1-5,33,30,26,29,27,25,98,89,82,29.71,29.26,3,1,7,0.00
2013-1-6,34,31,28,30,28,25,95,90,84,29.33,28.99,2,1,5,0.00
2013-1-7,32,30,26,31,27,22,97,89,80,29.27,29.01,2,1,7,0.00
2013-1-8,19,16,13,17,14,11,96,94,92,30.00,29.85,2,1,3,0.00
2013-1-9,18,12,7,17,10,5,95,93,89,30.09,29.94,1,0,2,0.00
2013-1-10,24,22,18,23,21,17,97,96,95,30.16,29.94,1,0,3,0.00
2013-1-11,28,26,23,27,25,22,97,96,95,30.14,29.89,2,0,6,0.00
2013-1-12,35,30,23,35,30,23,100,99,97,30.12,29.80,1,0,2,0.00
2013-1-13,38,36,34,38,36,34,100,100,100,29.88,29.60,2,0,3,0.00
2013-1-14,40,36,30,39,33,22,100,91,71,29.97,29.49,3,1,14,0.00
2013-1-15,31,28,25,23,21,17,89,77,65,30.21,29.97,3,1,12,0.00
2013-1-16,26,23,22,23,22,20,97,92,83,30.18,29.69,1,0,4,0.00
2013-1-17,22,18,10,21,16,7,97,93,88,29.95,29.62,1,0,2,0.00
2013-1-18,14,8,-1,12,6,-3,94,90,88,30.23,29.95,1,0,5,0.00
2013-1-19,25,18,13,22,16,10,92,90,88,30.24,29.91,3,1,10,0.00
2013-1-20,31,28,22,30,27,22,97,96,93,29.88,29.82,2,1,8,0.00
2013-1-21,33,26,19,30,24,18,99,92,87,29.89,29.65,2,1,7,0.00
2013-1-26,-6,-8,-10,-11,-13,-14,86,81,77,29.92,29.77,1,1,2,0.00
2013-1-27,3,-8,-14,-6,-15,-18,86,74,54,30.19,29.92,1,0,4,0.00
2013-1-28,-4,-9,-13,-11,-15,-19,81,75,70,30.22,30.15,2,1,3,0.00